Taouey — ZCAY9 — position and weather

sailwx.info

Track history (hours):
 
Tides and Currents Weather Stations Pressure Air Temp Water Temp Dewpoint Dewpoint Depression Visibility Wind Speed Wind Dir Waves Ship Positions

Taouey

Last reported at 2016-Aug-24 18:33 UTC. Time now 2016-Aug-25 11:28 UTC.
Position N 43°17' E 006°37'.

Length 58 m; draft 4 m.

MMSI: 310079000.

Date/timePositionNaut miles runAvg speedWind from/ knotsBaromVisibWave heightAir tempDewpointWater temp
2016-Aug-24 18:33N 43°17' E 006°37'29 2.0
2016-Aug-24 04:10N 43°00' E 007°08'812.5
2016-Aug-24 03:32N 42°55' E 007°16'1812.8
2016-Aug-24 02:10N 42°43' E 007°34'2412.8
2016-Aug-24 00:19N 42°27' E 007°58'  
2016-Aug-21 12:34N 41°04' E 009°32'0 0.0
2016-Aug-21 10:33N 41°04' E 009°32'0 0.0
2016-Aug-21 08:19N 41°04' E 009°32'0 0.0
2016-Aug-21 07:33N 41°04' E 009°32'0 0.0
2016-Aug-21 02:22N 41°04' E 009°32'0 0.0
2016-Aug-21 01:08N 41°04' E 009°32'0 0.0
2016-Aug-20 20:08N 41°04' E 009°32'0 0.0
2016-Aug-20 18:32N 41°04' E 009°32'0 0.0
2016-Aug-20 16:19N 41°04' E 009°32'0 0.0
2016-Aug-20 15:33N 41°04' E 009°32'0 0.0
2016-Aug-20 12:33N 41°04' E 009°32'0 0.0
2016-Aug-20 11:33N 41°04' E 009°32'0 0.0
2016-Aug-20 10:31N 41°04' E 009°32'0 0.0
2016-Aug-20 09:30N 41°04' E 009°32'0 0.0
2016-Aug-20 04:03N 41°04' E 009°32'0 0.0
2016-Aug-20 03:33N 41°04' E 009°32'0 0.0
2016-Aug-20 02:33N 41°04' E 009°32'0 0.0
2016-Aug-19 19:31N 41°04' E 009°32'0 0.0
2016-Aug-19 16:31N 41°04' E 009°32'0 0.0
2016-Aug-19 15:33N 41°04' E 009°32'0 0.0
2016-Aug-19 12:06N 41°04' E 009°32'  
2016-Aug-16 11:32N 41°04' E 009°32'8 7.7
2016-Aug-16 10:33N 41°12' E 009°35'4312.6
2016-Aug-16 07:09N 41°54' E 009°39'5712.3
2016-Aug-16 02:31N 42°51' E 009°35'1111.2
2016-Aug-16 01:33N 43°01' E 009°31'1111.1
2016-Aug-16 00:33N 43°08' E 009°19'1110.1
2016-Aug-15 23:29N 43°13' E 009°06'2412.5
2016-Aug-15 21:32N 43°22' E 008°35'1712.7
2016-Aug-15 20:11N 43°29' E 008°13'812.8
2016-Aug-15 19:31N 43°32' E 008°03'2512.5
2016-Aug-15 17:33N 43°42' E 007°31'5 4.2
2016-Aug-15 16:28N 43°44' E 007°26'0 0.0
2016-Aug-15 14:33N 43°44' E 007°26'0 0.0
2016-Aug-15 10:09N 43°44' E 007°26'0 0.0
2016-Aug-15 04:33N 43°44' E 007°26'0 0.0
2016-Aug-15 02:05N 43°44' E 007°26'0 0.0
2016-Aug-15 00:30N 43°44' E 007°26'0 0.0
2016-Aug-14 22:15N 43°44' E 007°26'0 0.0
2016-Aug-14 20:33N 43°44' E 007°26'  
Track history (hours):
 
Tides and Currents Weather Stations Pressure Air Temp Water Temp Dewpoint Dewpoint Depression Visibility Wind Speed Wind Dir Waves Ship Positions

Taouey

Last reported at 2016-Aug-24 18:33 UTC. Time now 2016-Aug-25 11:28 UTC.
Position N 43°17' E 006°37'.

Length 58 m; draft 4 m.

MMSI: 310079000.

Date/timePositionNaut miles runAvg speedWind from/ knotsBaromVisibWave heightAir tempDewpointWater temp
2016-Aug-24 18:33N 43°17' E 006°37'29 2.0
2016-Aug-24 04:10N 43°00' E 007°08'812.5
2016-Aug-24 03:32N 42°55' E 007°16'1812.8
2016-Aug-24 02:10N 42°43' E 007°34'2412.8
2016-Aug-24 00:19N 42°27' E 007°58'  
2016-Aug-21 12:34N 41°04' E 009°32'0 0.0
2016-Aug-21 10:33N 41°04' E 009°32'0 0.0
2016-Aug-21 08:19N 41°04' E 009°32'0 0.0
2016-Aug-21 07:33N 41°04' E 009°32'0 0.0
2016-Aug-21 02:22N 41°04' E 009°32'0 0.0
2016-Aug-21 01:08N 41°04' E 009°32'0 0.0
2016-Aug-20 20:08N 41°04' E 009°32'0 0.0
2016-Aug-20 18:32N 41°04' E 009°32'0 0.0
2016-Aug-20 16:19N 41°04' E 009°32'0 0.0
2016-Aug-20 15:33N 41°04' E 009°32'0 0.0
2016-Aug-20 12:33N 41°04' E 009°32'0 0.0
2016-Aug-20 11:33N 41°04' E 009°32'0 0.0
2016-Aug-20 10:31N 41°04' E 009°32'0 0.0
2016-Aug-20 09:30N 41°04' E 009°32'0 0.0
2016-Aug-20 04:03N 41°04' E 009°32'0 0.0
2016-Aug-20 03:33N 41°04' E 009°32'0 0.0
2016-Aug-20 02:33N 41°04' E 009°32'0 0.0
2016-Aug-19 19:31N 41°04' E 009°32'0 0.0
2016-Aug-19 16:31N 41°04' E 009°32'0 0.0
2016-Aug-19 15:33N 41°04' E 009°32'0 0.0
2016-Aug-19 12:06N 41°04' E 009°32'  
2016-Aug-16 11:32N 41°04' E 009°32'8 7.7
2016-Aug-16 10:33N 41°12' E 009°35'4312.6
2016-Aug-16 07:09N 41°54' E 009°39'5712.3
2016-Aug-16 02:31N 42°51' E 009°35'1111.2
2016-Aug-16 01:33N 43°01' E 009°31'1111.1
2016-Aug-16 00:33N 43°08' E 009°19'1110.1
2016-Aug-15 23:29N 43°13' E 009°06'2412.5
2016-Aug-15 21:32N 43°22' E 008°35'1712.7
2016-Aug-15 20:11N 43°29' E 008°13'812.8
2016-Aug-15 19:31N 43°32' E 008°03'2512.5
2016-Aug-15 17:33N 43°42' E 007°31'5 4.2
2016-Aug-15 16:28N 43°44' E 007°26'0 0.0
2016-Aug-15 14:33N 43°44' E 007°26'0 0.0
2016-Aug-15 10:09N 43°44' E 007°26'0 0.0
2016-Aug-15 04:33N 43°44' E 007°26'0 0.0
2016-Aug-15 02:05N 43°44' E 007°26'0 0.0
2016-Aug-15 00:30N 43°44' E 007°26'0 0.0
2016-Aug-14 22:15N 43°44' E 007°26'0 0.0
2016-Aug-14 20:33N 43°44' E 007°26'  

Dump ship's entire track history